sensor_id;sensor_type;location;lat;lon;timestamp;temperature;humidity
49242;DHT22;35079;52.704;13.814;2024-02-16T00:00:18;10.90;99.90
49242;DHT22;35079;52.704;13.814;2024-02-16T00:02:44;10.90;99.90
49242;DHT22;35079;52.704;13.814;2024-02-16T00:05:10;10.80;99.90
49242;DHT22;35079;52.704;13.814;2024-02-16T00:07:39;10.70;99.90
49242;DHT22;35079;52.704;13.814;2024-02-16T00:10:06;10.70;99.90
49242;DHT22;35079;52.704;13.814;2024-02-16T00:12:33;10.60;99.90
49242;DHT22;35079;52.704;13.814;2024-02-16T00:14:59;10.60;99.90
49242;DHT22;35079;52.704;13.814;2024-02-16T00:17:25;10.50;99.90
49242;DHT22;35079;52.704;13.814;2024-02-16T00:19:53;10.50;99.90
49242;DHT22;35079;52.704;13.814;2024-02-16T00:22:19;10.40;99.90
49242;DHT22;35079;52.704;13.814;2024-02-16T00:24:44;10.40;99.90
49242;DHT22;35079;52.704;13.814;2024-02-16T00:27:10;10.30;99.90
49242;DHT22;35079;52.704;13.814;2024-02-16T00:29:36;10.30;99.90
49242;DHT22;35079;52.704;13.814;2024-02-16T00:32:04;10.30;99.90
49242;DHT22;35079;52.704;13.814;2024-02-16T00:34:32;10.20;99.90
49242;DHT22;35079;52.704;13.814;2024-02-16T00:36:58;10.20;99.90
49242;DHT22;35079;52.704;13.814;2024-02-16T00:39:23;10.20;99.90
49242;DHT22;35079;52.704;13.814;2024-02-16T00:41:50;10.10;99.90
49242;DHT22;35079;52.704;13.814;2024-02-16T00:44:16;10.00;99.90
49242;DHT22;35079;52.704;13.814;2024-02-16T00:46:43;10.00;99.90
49242;DHT22;35079;52.704;13.814;2024-02-16T00:49:09;10.00;99.90
49242;DHT22;35079;52.704;13.814;2024-02-16T00:51:36;9.90;99.90
49242;DHT22;35079;52.704;13.814;2024-02-16T00:54:02;9.90;99.90
49242;DHT22;35079;52.704;13.814;2024-02-16T00:56:29;9.80;99.90
49242;DHT22;35079;52.704;13.814;2024-02-16T00:58:55;9.80;99.90
49242;DHT22;35079;52.704;13.814;2024-02-16T01:01:20;9.80;99.90
49242;DHT22;35079;52.704;13.814;2024-02-16T01:03:48;9.80;99.90
49242;DHT22;35079;52.704;13.814;2024-02-16T01:06:14;9.80;99.90
49242;DHT22;35079;52.704;13.814;2024-02-16T01:08:40;9.80;99.90
49242;DHT22;35079;52.704;13.814;2024-02-16T01:11:06;9.80;99.90
49242;DHT22;35079;52.704;13.814;2024-02-16T01:13:33;9.80;99.90
49242;DHT22;35079;52.704;13.814;2024-02-16T01:15:58;9.80;99.90
49242;DHT22;35079;52.704;13.814;2024-02-16T01:18:25;9.80;99.90
49242;DHT22;35079;52.704;13.814;2024-02-16T01:20:51;9.70;99.90
49242;DHT22;35079;52.704;13.814;2024-02-16T01:23:17;9.70;99.90
49242;DHT22;35079;52.704;13.814;2024-02-16T01:25:43;9.70;99.90
49242;DHT22;35079;52.704;13.814;2024-02-16T01:28:09;9.70;99.90
49242;DHT22;35079;52.704;13.814;2024-02-16T01:30:38;9.60;99.90
49242;DHT22;35079;52.704;13.814;2024-02-16T01:33:04;9.60;99.90
49242;DHT22;35079;52.704;13.814;2024-02-16T01:35:38;9.70;99.90
49242;DHT22;35079;52.704;13.814;2024-02-16T01:38:04;9.70;99.90
49242;DHT22;35079;52.704;13.814;2024-02-16T01:40:30;9.70;99.90
49242;DHT22;35079;52.704;13.814;2024-02-16T01:42:57;9.70;99.90
49242;DHT22;35079;52.704;13.814;2024-02-16T01:45:30;9.60;99.90
49242;DHT22;35079;52.704;13.814;2024-02-16T02:12:25;9.50;99.90
49242;DHT22;35079;52.704;13.814;2024-02-16T02:18:59;9.50;99.90
49242;DHT22;35079;52.704;13.814;2024-02-16T07:11:32;9.80;99.90
49242;DHT22;35079;52.704;13.814;2024-02-16T07:14:00;10.10;99.90
49242;DHT22;35079;52.704;13.814;2024-02-16T07:16:28;10.40;99.90
49242;DHT22;35079;52.704;13.814;2024-02-16T07:18:54;10.70;99.90
49242;DHT22;35079;52.704;13.814;2024-02-16T07:21:20;10.90;99.90
49242;DHT22;35079;52.704;13.814;2024-02-16T07:23:47;11.00;99.90
49242;DHT22;35079;52.704;13.814;2024-02-16T07:26:13;11.20;99.90
49242;DHT22;35079;52.704;13.814;2024-02-16T07:28:40;11.20;99.90
49242;DHT22;35079;52.704;13.814;2024-02-16T07:31:06;11.40;99.90
49242;DHT22;35079;52.704;13.814;2024-02-16T07:33:32;11.80;99.90
49242;DHT22;35079;52.704;13.814;2024-02-16T07:35:59;11.90;99.90
49242;DHT22;35079;52.704;13.814;2024-02-16T07:38:25;11.90;99.90
49242;DHT22;35079;52.704;13.814;2024-02-16T07:40:53;11.80;99.90
49242;DHT22;35079;52.704;13.814;2024-02-16T07:43:18;11.80;99.90
49242;DHT22;35079;52.704;13.814;2024-02-16T07:45:45;11.60;99.90
49242;DHT22;35079;52.704;13.814;2024-02-16T07:48:11;11.30;99.90
49242;DHT22;35079;52.704;13.814;2024-02-16T07:50:37;11.00;99.90
49242;DHT22;35079;52.704;13.814;2024-02-16T07:53:02;10.90;99.90
49242;DHT22;35079;52.704;13.814;2024-02-16T07:55:28;11.00;99.90
49242;DHT22;35079;52.704;13.814;2024-02-16T07:57:57;11.20;99.90
49242;DHT22;35079;52.704;13.814;2024-02-16T08:00:23;11.30;99.90
49242;DHT22;35079;52.704;13.814;2024-02-16T08:02:48;11.80;99.90
49242;DHT22;35079;52.704;13.814;2024-02-16T08:05:22;12.60;99.90
49242;DHT22;35079;52.704;13.814;2024-02-16T08:07:48;13.10;99.90
49242;DHT22;35079;52.704;13.814;2024-02-16T08:10:14;13.20;99.90
49242;DHT22;35079;52.704;13.814;2024-02-16T08:12:40;12.90;99.90
49242;DHT22;35079;52.704;13.814;2024-02-16T08:15:06;12.70;99.90
49242;DHT22;35079;52.704;13.814;2024-02-16T08:17:36;12.20;99.90
49242;DHT22;35079;52.704;13.814;2024-02-16T08:20:02;12.10;99.90
49242;DHT22;35079;52.704;13.814;2024-02-16T08:22:28;12.00;99.90
49242;DHT22;35079;52.704;13.814;2024-02-16T08:24:54;11.90;99.90
49242;DHT22;35079;52.704;13.814;2024-02-16T08:27:20;12.00;99.90
49242;DHT22;35079;52.704;13.814;2024-02-16T08:29:46;12.10;99.90
49242;DHT22;35079;52.704;13.814;2024-02-16T08:32:11;12.10;99.90
49242;DHT22;35079;52.704;13.814;2024-02-16T08:34:38;12.30;99.90
49242;DHT22;35079;52.704;13.814;2024-02-16T08:37:05;12.50;99.90
49242;DHT22;35079;52.704;13.814;2024-02-16T08:39:31;12.90;99.90
49242;DHT22;35079;52.704;13.814;2024-02-16T08:41:57;13.10;99.90
49242;DHT22;35079;52.704;13.814;2024-02-16T08:44:24;13.10;99.90
49242;DHT22;35079;52.704;13.814;2024-02-16T08:46:49;13.00;99.90
49242;DHT22;35079;52.704;13.814;2024-02-16T08:49:16;12.80;99.90
49242;DHT22;35079;52.704;13.814;2024-02-16T08:51:42;12.70;99.90
49242;DHT22;35079;52.704;13.814;2024-02-16T08:54:08;12.70;99.90
49242;DHT22;35079;52.704;13.814;2024-02-16T08:56:34;12.80;99.90
49242;DHT22;35079;52.704;13.814;2024-02-16T08:59:01;12.90;99.90
49242;DHT22;35079;52.704;13.814;2024-02-16T09:01:32;13.10;99.90
49242;DHT22;35079;52.704;13.814;2024-02-16T09:03:57;13.20;99.90
49242;DHT22;35079;52.704;13.814;2024-02-16T09:06:23;13.10;99.90
49242;DHT22;35079;52.704;13.814;2024-02-16T09:08:49;13.20;99.90
49242;DHT22;35079;52.704;13.814;2024-02-16T09:11:15;13.20;99.90
49242;DHT22;35079;52.704;13.814;2024-02-16T09:13:42;13.10;99.90
49242;DHT22;35079;52.704;13.814;2024-02-16T09:16:08;13.10;99.90
49242;DHT22;35079;52.704;13.814;2024-02-16T09:18:34;13.00;99.90
49242;DHT22;35079;52.704;13.814;2024-02-16T09:20:59;12.90;99.90
49242;DHT22;35079;52.704;13.814;2024-02-16T09:23:26;12.80;99.90
49242;DHT22;35079;52.704;13.814;2024-02-16T09:25:52;12.80;99.90
49242;DHT22;35079;52.704;13.814;2024-02-16T09:28:17;13.00;99.90
49242;DHT22;35079;52.704;13.814;2024-02-16T09:30:47;13.50;99.90
49242;DHT22;35079;52.704;13.814;2024-02-16T09:33:13;13.80;99.90
49242;DHT22;35079;52.704;13.814;2024-02-16T09:35:39;14.30;99.90
49242;DHT22;35079;52.704;13.814;2024-02-16T09:38:05;15.10;99.90
49242;DHT22;35079;52.704;13.814;2024-02-16T09:40:31;15.90;99.90
49242;DHT22;35079;52.704;13.814;2024-02-16T09:42:57;16.50;99.90
49242;DHT22;35079;52.704;13.814;2024-02-16T09:45:25;16.90;99.90
49242;DHT22;35079;52.704;13.814;2024-02-16T09:47:54;17.00;99.90
49242;DHT22;35079;52.704;13.814;2024-02-16T09:50:20;16.60;99.90
49242;DHT22;35079;52.704;13.814;2024-02-16T09:52:48;16.10;99.90
49242;DHT22;35079;52.704;13.814;2024-02-16T09:55:15;15.60;99.90
49242;DHT22;35079;52.704;13.814;2024-02-16T09:57:41;15.20;99.90
49242;DHT22;35079;52.704;13.814;2024-02-16T10:00:07;15.00;99.90
49242;DHT22;35079;52.704;13.814;2024-02-16T10:02:45;15.10;99.90
49242;DHT22;35079;52.704;13.814;2024-02-16T10:05:15;15.40;99.90
49242;DHT22;35079;52.704;13.814;2024-02-16T10:07:42;15.40;99.90
49242;DHT22;35079;52.704;13.814;2024-02-16T10:10:24;15.20;99.90
49242;DHT22;35079;52.704;13.814;2024-02-16T10:13:01;15.20;99.90
49242;DHT22;35079;52.704;13.814;2024-02-16T10:15:27;15.40;99.90
49242;DHT22;35079;52.704;13.814;2024-02-16T10:18:06;15.40;99.90
49242;DHT22;35079;52.704;13.814;2024-02-16T10:20:35;15.40;99.90
49242;DHT22;35079;52.704;13.814;2024-02-16T10:23:10;15.20;99.90
49242;DHT22;35079;52.704;13.814;2024-02-16T10:25:40;15.10;99.90
49242;DHT22;35079;52.704;13.814;2024-02-16T10:28:09;14.90;99.90
49242;DHT22;35079;52.704;13.814;2024-02-16T10:30:38;14.80;99.90
49242;DHT22;35079;52.704;13.814;2024-02-16T10:33:08;14.70;99.90
49242;DHT22;35079;52.704;13.814;2024-02-16T10:35:37;14.50;99.90
49242;DHT22;35079;52.704;13.814;2024-02-16T10:38:08;14.50;99.90
49242;DHT22;35079;52.704;13.814;2024-02-16T10:40:41;14.20;99.90
49242;DHT22;35079;52.704;13.814;2024-02-16T10:43:08;14.20;99.90
49242;DHT22;35079;52.704;13.814;2024-02-16T10:45:36;14.10;99.90
49242;DHT22;35079;52.704;13.814;2024-02-16T10:48:03;14.20;99.90
49242;DHT22;35079;52.704;13.814;2024-02-16T10:50:31;14.10;99.90
49242;DHT22;35079;52.704;13.814;2024-02-16T10:52:59;14.10;99.90
49242;DHT22;35079;52.704;13.814;2024-02-16T10:55:26;14.20;99.90
49242;DHT22;35079;52.704;13.814;2024-02-16T10:57:52;14.20;99.90
49242;DHT22;35079;52.704;13.814;2024-02-16T11:00:21;14.20;99.90
49242;DHT22;35079;52.704;13.814;2024-02-16T11:02:58;14.30;99.90
49242;DHT22;35079;52.704;13.814;2024-02-16T11:05:41;14.40;99.90
49242;DHT22;35079;52.704;13.814;2024-02-16T11:08:14;14.40;99.90
49242;DHT22;35079;52.704;13.814;2024-02-16T11:10:40;14.50;99.90
49242;DHT22;35079;52.704;13.814;2024-02-16T11:13:06;14.70;99.90
49242;DHT22;35079;52.704;13.814;2024-02-16T11:15:34;15.10;99.90
49242;DHT22;35079;52.704;13.814;2024-02-16T11:18:01;15.00;99.90
49242;DHT22;35079;52.704;13.814;2024-02-16T11:20:27;14.90;99.90
49242;DHT22;35079;52.704;13.814;2024-02-16T11:22:53;14.70;99.90
49242;DHT22;35079;52.704;13.814;2024-02-16T11:25:22;14.70;99.90
49242;DHT22;35079;52.704;13.814;2024-02-16T11:27:55;14.70;99.90
49242;DHT22;35079;52.704;13.814;2024-02-16T11:30:21;14.70;99.90
49242;DHT22;35079;52.704;13.814;2024-02-16T11:32:47;14.60;99.90
49242;DHT22;35079;52.704;13.814;2024-02-16T11:35:13;14.60;99.90
49242;DHT22;35079;52.704;13.814;2024-02-16T11:37:38;14.60;99.90
49242;DHT22;35079;52.704;13.814;2024-02-16T11:40:05;14.80;99.90
49242;DHT22;35079;52.704;13.814;2024-02-16T11:42:33;15.00;99.90
49242;DHT22;35079;52.704;13.814;2024-02-16T11:45:00;15.20;99.90
49242;DHT22;35079;52.704;13.814;2024-02-16T11:47:26;15.40;99.90
49242;DHT22;35079;52.704;13.814;2024-02-16T11:50:08;15.40;99.90
49242;DHT22;35079;52.704;13.814;2024-02-16T11:52:39;15.30;99.90
49242;DHT22;35079;52.704;13.814;2024-02-16T11:55:09;15.30;99.90
49242;DHT22;35079;52.704;13.814;2024-02-16T11:57:39;15.30;99.90
49242;DHT22;35079;52.704;13.814;2024-02-16T12:00:06;15.50;99.90
49242;DHT22;35079;52.704;13.814;2024-02-16T12:02:36;15.60;99.90
49242;DHT22;35079;52.704;13.814;2024-02-16T12:05:02;15.70;99.90
49242;DHT22;35079;52.704;13.814;2024-02-16T12:07:28;15.50;99.90
49242;DHT22;35079;52.704;13.814;2024-02-16T12:09:58;15.60;99.90
49242;DHT22;35079;52.704;13.814;2024-02-16T12:12:24;16.10;99.90
49242;DHT22;35079;52.704;13.814;2024-02-16T12:14:50;16.80;99.90
49242;DHT22;35079;52.704;13.814;2024-02-16T12:17:16;17.20;99.90
49242;DHT22;35079;52.704;13.814;2024-02-16T12:19:45;17.20;99.90
49242;DHT22;35079;52.704;13.814;2024-02-16T12:22:16;16.80;99.90
49242;DHT22;35079;52.704;13.814;2024-02-16T12:24:43;16.50;99.90
49242;DHT22;35079;52.704;13.814;2024-02-16T12:27:09;16.20;99.90
49242;DHT22;35079;52.704;13.814;2024-02-16T12:29:35;16.10;99.90
49242;DHT22;35079;52.704;13.814;2024-02-16T12:32:01;15.90;99.90
49242;DHT22;35079;52.704;13.814;2024-02-16T12:34:27;15.80;99.90
49242;DHT22;35079;52.704;13.814;2024-02-16T12:36:53;15.90;99.90
49242;DHT22;35079;52.704;13.814;2024-02-16T12:39:19;16.00;99.90
49242;DHT22;35079;52.704;13.814;2024-02-16T12:41:46;16.10;99.90
49242;DHT22;35079;52.704;13.814;2024-02-16T12:44:12;16.10;99.90
49242;DHT22;35079;52.704;13.814;2024-02-16T12:46:37;16.20;99.90
49242;DHT22;35079;52.704;13.814;2024-02-16T12:49:04;16.30;99.90
49242;DHT22;35079;52.704;13.814;2024-02-16T12:51:30;16.40;99.90
49242;DHT22;35079;52.704;13.814;2024-02-16T12:53:55;16.40;99.90
49242;DHT22;35079;52.704;13.814;2024-02-16T12:56:21;16.40;99.90
49242;DHT22;35079;52.704;13.814;2024-02-16T12:58:47;16.40;99.90
49242;DHT22;35079;52.704;13.814;2024-02-16T13:01:13;16.20;99.90
49242;DHT22;35079;52.704;13.814;2024-02-16T13:03:39;16.30;99.90
49242;DHT22;35079;52.704;13.814;2024-02-16T13:06:05;16.20;99.90
49242;DHT22;35079;52.704;13.814;2024-02-16T13:08:31;16.30;99.90
49242;DHT22;35079;52.704;13.814;2024-02-16T13:10:57;16.30;99.90
49242;DHT22;35079;52.704;13.814;2024-02-16T13:13:23;16.30;99.90
49242;DHT22;35079;52.704;13.814;2024-02-16T13:15:49;16.40;99.90
49242;DHT22;35079;52.704;13.814;2024-02-16T13:18:16;16.50;99.90
49242;DHT22;35079;52.704;13.814;2024-02-16T13:20:43;16.60;99.90
49242;DHT22;35079;52.704;13.814;2024-02-16T13:23:09;16.50;99.90
49242;DHT22;35079;52.704;13.814;2024-02-16T13:25:35;16.40;99.90
49242;DHT22;35079;52.704;13.814;2024-02-16T13:28:01;16.30;99.90
49242;DHT22;35079;52.704;13.814;2024-02-16T13:30:27;16.30;99.90
49242;DHT22;35079;52.704;13.814;2024-02-16T13:32:56;16.40;99.90
49242;DHT22;35079;52.704;13.814;2024-02-16T13:35:22;16.60;99.90
49242;DHT22;35079;52.704;13.814;2024-02-16T13:37:48;16.90;99.90
49242;DHT22;35079;52.704;13.814;2024-02-16T13:40:14;16.90;99.90
49242;DHT22;35079;52.704;13.814;2024-02-16T13:42:41;17.00;99.90
49242;DHT22;35079;52.704;13.814;2024-02-16T13:45:07;17.00;99.90
49242;DHT22;35079;52.704;13.814;2024-02-16T13:47:33;16.80;99.90
49242;DHT22;35079;52.704;13.814;2024-02-16T13:49:59;16.80;99.90
49242;DHT22;35079;52.704;13.814;2024-02-16T13:52:25;16.70;99.90
49242;DHT22;35079;52.704;13.814;2024-02-16T13:54:52;16.60;99.90
49242;DHT22;35079;52.704;13.814;2024-02-16T13:57:17;16.40;99.90
49242;DHT22;35079;52.704;13.814;2024-02-16T13:59:44;16.30;99.90
49242;DHT22;35079;52.704;13.814;2024-02-16T14:02:10;16.10;99.90
49242;DHT22;35079;52.704;13.814;2024-02-16T14:04:37;15.90;99.90
49242;DHT22;35079;52.704;13.814;2024-02-16T14:07:03;15.90;99.90
49242;DHT22;35079;52.704;13.814;2024-02-16T14:09:28;15.70;99.90
49242;DHT22;35079;52.704;13.814;2024-02-16T14:11:54;15.70;99.90
49242;DHT22;35079;52.704;13.814;2024-02-16T14:14:21;15.70;99.90
49242;DHT22;35079;52.704;13.814;2024-02-16T14:16:47;15.70;99.90
49242;DHT22;35079;52.704;13.814;2024-02-16T14:19:13;15.70;99.90
49242;DHT22;35079;52.704;13.814;2024-02-16T14:21:39;15.70;99.90
49242;DHT22;35079;52.704;13.814;2024-02-16T14:24:04;15.90;99.90
49242;DHT22;35079;52.704;13.814;2024-02-16T14:26:30;15.80;99.90
49242;DHT22;35079;52.704;13.814;2024-02-16T14:28:56;15.70;99.90
49242;DHT22;35079;52.704;13.814;2024-02-16T14:31:23;15.70;99.90
49242;DHT22;35079;52.704;13.814;2024-02-16T14:33:48;15.70;99.90
49242;DHT22;35079;52.704;13.814;2024-02-16T14:36:15;15.60;99.90
49242;DHT22;35079;52.704;13.814;2024-02-16T14:38:40;15.50;99.90
49242;DHT22;35079;52.704;13.814;2024-02-16T14:41:06;15.50;99.90
49242;DHT22;35079;52.704;13.814;2024-02-16T14:43:32;15.50;99.90
49242;DHT22;35079;52.704;13.814;2024-02-16T14:45:58;15.50;99.90
49242;DHT22;35079;52.704;13.814;2024-02-16T14:48:24;15.40;99.90
49242;DHT22;35079;52.704;13.814;2024-02-16T14:50:53;15.40;99.90
49242;DHT22;35079;52.704;13.814;2024-02-16T14:53:19;15.30;99.90
49242;DHT22;35079;52.704;13.814;2024-02-16T14:55:49;15.30;99.90
49242;DHT22;35079;52.704;13.814;2024-02-16T14:58:18;15.20;99.90
49242;DHT22;35079;52.704;13.814;2024-02-16T15:00:44;15.20;99.90
49242;DHT22;35079;52.704;13.814;2024-02-16T15:03:10;15.20;99.90
49242;DHT22;35079;52.704;13.814;2024-02-16T15:05:36;15.20;99.90
49242;DHT22;35079;52.704;13.814;2024-02-16T15:08:03;15.20;99.90
49242;DHT22;35079;52.704;13.814;2024-02-16T15:10:29;15.10;99.90
49242;DHT22;35079;52.704;13.814;2024-02-16T15:12:54;15.00;99.90
49242;DHT22;35079;52.704;13.814;2024-02-16T15:15:20;15.00;99.90
49242;DHT22;35079;52.704;13.814;2024-02-16T15:17:46;15.00;99.90
49242;DHT22;35079;52.704;13.814;2024-02-16T15:20:13;14.90;99.90
49242;DHT22;35079;52.704;13.814;2024-02-16T15:22:39;14.90;99.90
49242;DHT22;35079;52.704;13.814;2024-02-16T15:25:07;14.80;99.90
49242;DHT22;35079;52.704;13.814;2024-02-16T15:27:33;14.80;99.90
49242;DHT22;35079;52.704;13.814;2024-02-16T15:29:59;14.80;99.90
49242;DHT22;35079;52.704;13.814;2024-02-16T15:32:25;14.70;99.90
49242;DHT22;35079;52.704;13.814;2024-02-16T15:34:51;14.70;99.90
49242;DHT22;35079;52.704;13.814;2024-02-16T15:37:19;14.60;99.90
49242;DHT22;35079;52.704;13.814;2024-02-16T15:39:46;14.50;99.90
49242;DHT22;35079;52.704;13.814;2024-02-16T15:42:12;14.50;99.90
49242;DHT22;35079;52.704;13.814;2024-02-16T15:44:40;14.40;99.90
49242;DHT22;35079;52.704;13.814;2024-02-16T15:47:06;14.40;99.90
49242;DHT22;35079;52.704;13.814;2024-02-16T15:49:35;14.40;99.90
49242;DHT22;35079;52.704;13.814;2024-02-16T15:52:01;14.30;99.90
49242;DHT22;35079;52.704;13.814;2024-02-16T15:54:26;14.20;99.90
49242;DHT22;35079;52.704;13.814;2024-02-16T15:56:52;14.20;99.90
49242;DHT22;35079;52.704;13.814;2024-02-16T15:59:18;14.10;99.90
49242;DHT22;35079;52.704;13.814;2024-02-16T16:01:44;14.10;99.90
49242;DHT22;35079;52.704;13.814;2024-02-16T16:04:19;14.10;99.90
49242;DHT22;35079;52.704;13.814;2024-02-16T16:06:45;14.00;99.90
49242;DHT22;35079;52.704;13.814;2024-02-16T16:09:11;14.00;99.90
49242;DHT22;35079;52.704;13.814;2024-02-16T16:11:37;13.90;99.90
49242;DHT22;35079;52.704;13.814;2024-02-16T16:14:05;13.90;99.90
49242;DHT22;35079;52.704;13.814;2024-02-16T16:16:34;13.80;99.90
49242;DHT22;35079;52.704;13.814;2024-02-16T16:19:00;13.80;99.90
49242;DHT22;35079;52.704;13.814;2024-02-16T16:21:26;13.80;99.90
49242;DHT22;35079;52.704;13.814;2024-02-16T16:23:54;13.70;99.90
49242;DHT22;35079;52.704;13.814;2024-02-16T16:26:19;13.80;99.90
49242;DHT22;35079;52.704;13.814;2024-02-16T16:28:52;13.70;99.90
49242;DHT22;35079;52.704;13.814;2024-02-16T16:31:18;13.70;99.90
49242;DHT22;35079;52.704;13.814;2024-02-16T16:33:44;13.70;99.90
49242;DHT22;35079;52.704;13.814;2024-02-16T16:36:13;13.60;99.90
49242;DHT22;35079;52.704;13.814;2024-02-16T16:38:40;13.60;99.90
49242;DHT22;35079;52.704;13.814;2024-02-16T16:41:06;13.60;99.90
49242;DHT22;35079;52.704;13.814;2024-02-16T16:43:33;13.60;99.90
49242;DHT22;35079;52.704;13.814;2024-02-16T16:45:59;13.60;99.90
49242;DHT22;35079;52.704;13.814;2024-02-16T16:48:25;13.70;99.90
49242;DHT22;35079;52.704;13.814;2024-02-16T16:50:50;13.50;99.90
49242;DHT22;35079;52.704;13.814;2024-02-16T16:53:19;13.60;99.90
49242;DHT22;35079;52.704;13.814;2024-02-16T16:55:46;13.60;99.90
49242;DHT22;35079;52.704;13.814;2024-02-16T16:58:11;13.50;99.90
49242;DHT22;35079;52.704;13.814;2024-02-16T17:00:37;13.50;99.90
49242;DHT22;35079;52.704;13.814;2024-02-16T17:03:03;13.40;99.90
49242;DHT22;35079;52.704;13.814;2024-02-16T17:05:28;13.40;99.90
49242;DHT22;35079;52.704;13.814;2024-02-16T17:07:54;13.40;99.90
49242;DHT22;35079;52.704;13.814;2024-02-16T17:10:20;13.40;99.90
49242;DHT22;35079;52.704;13.814;2024-02-16T17:12:45;13.30;99.90
49242;DHT22;35079;52.704;13.814;2024-02-16T17:15:15;13.30;99.90
49242;DHT22;35079;52.704;13.814;2024-02-16T17:17:43;13.30;99.90
49242;DHT22;35079;52.704;13.814;2024-02-16T17:20:13;13.20;99.90
49242;DHT22;35079;52.704;13.814;2024-02-16T17:22:39;13.20;99.90
49242;DHT22;35079;52.704;13.814;2024-02-16T17:25:06;13.10;99.90
49242;DHT22;35079;52.704;13.814;2024-02-16T17:27:34;13.20;99.90
49242;DHT22;35079;52.704;13.814;2024-02-16T17:30:02;13.10;99.90
49242;DHT22;35079;52.704;13.814;2024-02-16T17:32:27;13.10;99.90
49242;DHT22;35079;52.704;13.814;2024-02-16T17:34:53;13.10;99.90
49242;DHT22;35079;52.704;13.814;2024-02-16T17:37:19;13.00;99.90
49242;DHT22;35079;52.704;13.814;2024-02-16T17:39:45;12.90;99.90
49242;DHT22;35079;52.704;13.814;2024-02-16T17:42:14;13.00;99.90
49242;DHT22;35079;52.704;13.814;2024-02-16T17:44:39;13.10;99.90
49242;DHT22;35079;52.704;13.814;2024-02-16T17:47:05;13.00;99.90
49242;DHT22;35079;52.704;13.814;2024-02-16T17:49:31;13.00;99.90
49242;DHT22;35079;52.704;13.814;2024-02-16T17:51:56;13.00;99.90
49242;DHT22;35079;52.704;13.814;2024-02-16T17:54:22;12.90;99.90
49242;DHT22;35079;52.704;13.814;2024-02-16T17:56:48;12.80;99.90
49242;DHT22;35079;52.704;13.814;2024-02-16T17:59:13;12.80;99.90
49242;DHT22;35079;52.704;13.814;2024-02-16T18:01:39;12.80;99.90
49242;DHT22;35079;52.704;13.814;2024-02-16T18:04:07;12.80;99.90
49242;DHT22;35079;52.704;13.814;2024-02-16T18:06:33;12.70;99.90
49242;DHT22;35079;52.704;13.814;2024-02-16T18:09:00;12.70;99.90
49242;DHT22;35079;52.704;13.814;2024-02-16T18:11:26;12.70;99.90
49242;DHT22;35079;52.704;13.814;2024-02-16T18:13:52;12.70;99.90
49242;DHT22;35079;52.704;13.814;2024-02-16T18:16:17;12.70;99.90
49242;DHT22;35079;52.704;13.814;2024-02-16T18:18:44;12.60;99.90
49242;DHT22;35079;52.704;13.814;2024-02-16T18:21:09;12.60;99.90
49242;DHT22;35079;52.704;13.814;2024-02-16T18:23:35;12.60;99.90
49242;DHT22;35079;52.704;13.814;2024-02-16T18:26:07;12.60;99.90
49242;DHT22;35079;52.704;13.814;2024-02-16T18:28:32;12.70;99.90
49242;DHT22;35079;52.704;13.814;2024-02-16T18:30:58;12.70;99.90
49242;DHT22;35079;52.704;13.814;2024-02-16T18:33:23;12.60;99.90
49242;DHT22;35079;52.704;13.814;2024-02-16T18:35:49;12.60;99.90
49242;DHT22;35079;52.704;13.814;2024-02-16T18:38:15;12.50;99.90
49242;DHT22;35079;52.704;13.814;2024-02-16T18:40:40;12.50;99.90
49242;DHT22;35079;52.704;13.814;2024-02-16T18:43:06;12.40;99.90
49242;DHT22;35079;52.704;13.814;2024-02-16T18:45:32;12.40;99.90
49242;DHT22;35079;52.704;13.814;2024-02-16T18:47:58;12.40;99.90
49242;DHT22;35079;52.704;13.814;2024-02-16T18:50:23;12.40;99.90
49242;DHT22;35079;52.704;13.814;2024-02-16T18:52:49;12.40;99.90
49242;DHT22;35079;52.704;13.814;2024-02-16T18:55:15;12.40;99.90
49242;DHT22;35079;52.704;13.814;2024-02-16T18:57:41;12.40;99.90
49242;DHT22;35079;52.704;13.814;2024-02-16T19:00:07;12.40;99.90
49242;DHT22;35079;52.704;13.814;2024-02-16T19:02:34;12.50;99.90
49242;DHT22;35079;52.704;13.814;2024-02-16T19:05:03;12.50;99.90
49242;DHT22;35079;52.704;13.814;2024-02-16T19:07:30;12.50;99.90
49242;DHT22;35079;52.704;13.814;2024-02-16T19:09:56;12.60;99.90
49242;DHT22;35079;52.704;13.814;2024-02-16T19:12:23;12.70;99.90
49242;DHT22;35079;52.704;13.814;2024-02-16T19:14:48;12.60;99.90
49242;DHT22;35079;52.704;13.814;2024-02-16T19:17:14;12.70;99.90
49242;DHT22;35079;52.704;13.814;2024-02-16T19:19:41;12.60;99.90
49242;DHT22;35079;52.704;13.814;2024-02-16T19:22:07;12.70;99.90
49242;DHT22;35079;52.704;13.814;2024-02-16T19:24:33;12.60;99.90
49242;DHT22;35079;52.704;13.814;2024-02-16T19:26:58;12.70;99.90
49242;DHT22;35079;52.704;13.814;2024-02-16T19:29:24;12.60;99.90
49242;DHT22;35079;52.704;13.814;2024-02-16T19:31:49;12.60;99.90
49242;DHT22;35079;52.704;13.814;2024-02-16T19:34:15;12.70;99.90
49242;DHT22;35079;52.704;13.814;2024-02-16T19:36:41;12.80;99.90
49242;DHT22;35079;52.704;13.814;2024-02-16T19:39:06;12.70;99.90
49242;DHT22;35079;52.704;13.814;2024-02-16T19:41:34;12.70;99.90
49242;DHT22;35079;52.704;13.814;2024-02-16T19:43:59;12.70;99.90
49242;DHT22;35079;52.704;13.814;2024-02-16T19:46:25;12.70;99.90
49242;DHT22;35079;52.704;13.814;2024-02-16T19:48:50;12.60;99.90
49242;DHT22;35079;52.704;13.814;2024-02-16T19:51:16;12.60;99.90
49242;DHT22;35079;52.704;13.814;2024-02-16T19:53:42;12.60;99.90
49242;DHT22;35079;52.704;13.814;2024-02-16T19:56:07;12.50;99.90
49242;DHT22;35079;52.704;13.814;2024-02-16T19:58:33;12.50;99.90
49242;DHT22;35079;52.704;13.814;2024-02-16T20:00:59;12.50;99.90
49242;DHT22;35079;52.704;13.814;2024-02-16T20:03:24;12.50;99.90
49242;DHT22;35079;52.704;13.814;2024-02-16T20:05:50;12.40;99.90
49242;DHT22;35079;52.704;13.814;2024-02-16T20:08:17;12.40;99.90
49242;DHT22;35079;52.704;13.814;2024-02-16T20:10:43;12.30;99.90
49242;DHT22;35079;52.704;13.814;2024-02-16T20:13:08;12.30;99.90
49242;DHT22;35079;52.704;13.814;2024-02-16T20:15:34;12.30;99.90
49242;DHT22;35079;52.704;13.814;2024-02-16T20:18:00;12.30;99.90
49242;DHT22;35079;52.704;13.814;2024-02-16T20:20:27;12.40;99.90
49242;DHT22;35079;52.704;13.814;2024-02-16T20:22:53;12.40;99.90
49242;DHT22;35079;52.704;13.814;2024-02-16T20:25:19;12.40;99.90
49242;DHT22;35079;52.704;13.814;2024-02-16T20:27:48;12.30;99.90
49242;DHT22;35079;52.704;13.814;2024-02-16T20:30:14;12.40;99.90
49242;DHT22;35079;52.704;13.814;2024-02-16T20:32:40;12.30;99.90